createdAt,value
2022-11-15T00:00:23.310Z,71.38
2022-11-15T00:03:10.120Z,71.65
2022-11-15T00:05:56.466Z,71.05
2022-11-15T00:08:44.395Z,70.43
2022-11-15T00:11:31.316Z,73.18
2022-11-15T00:14:17.744Z,68.88
2022-11-15T00:17:04.482Z,72.65
2022-11-15T00:19:51.438Z,73.63
2022-11-15T00:22:38.073Z,73.10
2022-11-15T00:25:26.063Z,73.32
2022-11-15T00:28:13.117Z,73.82
2022-11-15T00:31:03.208Z,72.05
2022-11-15T00:33:50.005Z,73.65
2022-11-15T00:36:36.607Z,72.70
2022-11-15T00:39:23.210Z,75.95
2022-11-15T00:42:11.124Z,77.82
2022-11-15T00:44:58.029Z,74.28
2022-11-15T00:47:47.220Z,73.75
2022-11-15T00:50:34.032Z,74.90
2022-11-15T00:53:20.511Z,75.30
2022-11-15T00:56:07.534Z,76.93
2022-11-15T00:58:56.297Z,74.82
2022-11-15T01:01:42.979Z,73.55
2022-11-15T01:04:29.675Z,75.95
2022-11-15T01:07:16.532Z,76.95
2022-11-15T01:10:03.500Z,75.35
2022-11-15T01:12:51.013Z,73.35
2022-11-15T01:15:41.933Z,73.10
2022-11-15T01:18:28.661Z,76.80
2022-11-15T01:21:18.054Z,77.18
2022-11-15T01:24:04.739Z,76.20
2022-11-15T01:26:51.506Z,75.15
2022-11-15T01:29:38.139Z,74.22
2022-11-15T01:32:26.334Z,75.55
2022-11-15T01:35:12.891Z,73.10
2022-11-15T01:37:59.681Z,75.22
2022-11-15T01:40:46.534Z,76.35
2022-11-15T01:43:35.095Z,77.18
2022-11-15T01:46:31.581Z,74.28
2022-11-15T01:49:22.873Z,74.95
2022-11-15T01:52:14.848Z,77.25
2022-11-15T01:55:05.447Z,74.97
2022-11-15T01:57:55.814Z,77.13
2022-11-15T02:00:43.039Z,79.28
2022-11-15T02:03:38.747Z,79.35
2022-11-15T02:06:26.881Z,80.95
2022-11-15T02:09:14.342Z,79.22
2022-11-15T02:12:02.178Z,80.68
2022-11-15T02:14:51.973Z,79.80
2022-11-15T02:18:03.344Z,79.63
2022-11-15T02:21:04.610Z,80.95
2022-11-15T02:24:12.011Z,78.50
2022-11-15T02:27:34.486Z,79.85
2022-11-15T02:30:26.005Z,81.63
2022-11-15T02:33:24.565Z,80.25
2022-11-15T02:36:17.860Z,76.75
2022-11-15T02:39:10.513Z,79.03
2022-11-15T02:42:03.383Z,79.73
2022-11-15T02:44:50.343Z,77.90
2022-11-15T02:47:44.990Z,81.03
2022-11-15T02:50:34.772Z,79.47
2022-11-15T02:53:26.256Z,81.47
2022-11-15T02:56:14.364Z,80.15
2022-11-15T02:59:20.934Z,81.15
2022-11-15T03:02:20.092Z,77.65
2022-11-15T03:05:20.517Z,79.60
2022-11-15T03:08:12.561Z,78.63
2022-11-15T03:11:06.019Z,83.40
2022-11-15T03:13:59.593Z,84.35
2022-11-15T03:16:50.494Z,80.63
2022-11-15T03:19:42.746Z,81.55
2022-11-15T03:22:36.656Z,81.22
2022-11-15T03:25:26.271Z,83.38
2022-11-15T03:28:17.542Z,83.18
2022-11-15T03:31:25.564Z,82.35
2022-11-15T03:34:17.685Z,81.45
2022-11-15T03:37:04.755Z,80.18
2022-11-15T03:39:53.035Z,80.53
2022-11-15T03:42:45.618Z,83.38
2022-11-15T03:45:38.002Z,81.93
2022-11-15T03:48:28.729Z,81.78
2022-11-15T03:51:16.461Z,81.40
2022-11-15T03:54:05.549Z,82.07
2022-11-15T03:56:53.849Z,80.60
2022-11-15T03:59:40.734Z,83.20
2022-11-15T04:02:27.562Z,80.95
2022-11-15T04:05:14.237Z,86.40
2022-11-15T04:08:01.180Z,81.97
2022-11-15T04:10:50.405Z,83.28
2022-11-15T04:13:38.620Z,79.03
2022-11-15T04:16:25.362Z,81.25
2022-11-15T04:19:29.370Z,80.45
2022-11-15T04:22:33.581Z,83.32
2022-11-15T04:25:23.509Z,82.15
2022-11-15T04:28:11.607Z,79.97
2022-11-15T04:30:59.626Z,78.88
2022-11-15T04:33:46.208Z,80.57
2022-11-15T04:36:49.979Z,80.03
2022-11-15T04:39:36.967Z,78.32
2022-11-15T04:42:26.095Z,75.88
2022-11-15T04:45:15.069Z,77.65
2022-11-15T04:48:03.101Z,79.05
2022-11-15T04:50:50.075Z,81.15
2022-11-15T04:53:36.769Z,80.70
2022-11-15T04:56:23.235Z,82.28
2022-11-15T04:59:09.738Z,81.93
2022-11-15T05:01:56.344Z,77.00
2022-11-15T05:04:43.121Z,79.97
2022-11-15T05:07:29.622Z,80.47
2022-11-15T05:10:16.269Z,81.70
2022-11-15T05:13:02.793Z,79.22
2022-11-15T05:15:49.733Z,79.97
2022-11-15T05:18:41.516Z,78.65
2022-11-15T05:21:29.549Z,79.25
2022-11-15T05:24:16.143Z,79.60
2022-11-15T05:27:02.787Z,79.43
2022-11-15T05:29:49.171Z,79.60
2022-11-15T05:32:35.718Z,78.43
2022-11-15T05:35:28.069Z,80.97
2022-11-15T05:38:16.058Z,78.07
2022-11-15T05:41:03.910Z,77.68
2022-11-15T05:43:52.407Z,79.88
2022-11-15T05:46:41.750Z,77.43
2022-11-15T05:49:34.015Z,76.63
2022-11-15T05:52:24.699Z,80.97
2022-11-15T05:55:12.593Z,76.70
2022-11-15T05:57:59.466Z,78.55
2022-11-15T06:00:46.095Z,80.15
2022-11-15T06:03:33.129Z,79.63
2022-11-15T06:06:20.254Z,79.80
2022-11-15T06:09:07.093Z,78.88
2022-11-15T06:11:54.971Z,77.75
2022-11-15T06:14:41.850Z,80.15
2022-11-15T06:17:28.687Z,79.85
2022-11-15T06:20:15.160Z,80.28
2022-11-15T06:23:02.585Z,79.38
2022-11-15T06:25:49.316Z,81.50
2022-11-15T06:28:37.317Z,79.05
2022-11-15T06:31:23.734Z,78.03
2022-11-15T06:34:13.037Z,78.90
2022-11-15T06:36:59.597Z,75.75
2022-11-15T06:39:46.121Z,79.43
2022-11-15T06:42:34.311Z,78.90
2022-11-15T06:45:22.554Z,78.63
2022-11-15T06:48:09.458Z,81.57
2022-11-15T06:50:56.833Z,80.00
2022-11-15T06:53:46.128Z,80.00
2022-11-15T06:56:32.771Z,78.80
2022-11-15T06:59:19.443Z,79.78
2022-11-15T07:02:13.248Z,80.43
2022-11-15T07:04:59.946Z,81.65
2022-11-15T07:07:53.638Z,78.88
2022-11-15T07:10:42.176Z,78.40
2022-11-15T07:13:30.074Z,81.65
2022-11-15T07:16:17.144Z,81.82
2022-11-15T07:19:05.437Z,81.05
2022-11-15T07:21:51.951Z,79.38
2022-11-15T07:24:38.500Z,78.65
2022-11-15T07:27:25.132Z,79.25
2022-11-15T07:30:15.539Z,75.93
2022-11-15T07:33:03.052Z,76.88
2022-11-15T07:35:51.155Z,77.15
2022-11-15T07:38:42.980Z,76.93
2022-11-15T07:41:30.735Z,76.68
2022-11-15T07:44:17.121Z,77.13
2022-11-15T07:47:03.679Z,74.78
2022-11-15T07:49:50.324Z,73.18
2022-11-15T07:52:38.519Z,73.00
2022-11-15T07:55:25.116Z,74.03
2022-11-15T07:58:13.797Z,72.20
2022-11-15T08:01:00.353Z,68.35
2022-11-15T08:03:49.558Z,69.90
2022-11-15T08:06:36.149Z,63.42
2022-11-15T08:09:23.954Z,63.50
2022-11-15T08:12:10.667Z,62.90
2022-11-15T08:14:57.338Z,62.35
2022-11-15T08:17:43.894Z,59.20
2022-11-15T08:20:31.655Z,62.05
2022-11-15T08:23:18.373Z,60.90
2022-11-15T08:26:07.207Z,59.05
2022-11-15T08:28:54.142Z,58.92
2022-11-15T08:31:40.544Z,56.35
2022-11-15T08:34:27.243Z,57.72
2022-11-15T08:37:13.994Z,57.08
2022-11-15T08:40:02.543Z,55.20
2022-11-15T08:42:54.429Z,55.13
2022-11-15T08:45:41.016Z,54.60
2022-11-15T08:48:28.172Z,53.63
2022-11-15T08:51:14.936Z,53.15
2022-11-15T08:54:01.471Z,52.03
2022-11-15T08:56:48.292Z,51.72
2022-11-15T08:59:36.126Z,50.53
2022-11-15T09:02:22.655Z,51.55
2022-11-15T09:05:10.383Z,51.78
2022-11-15T09:07:57.565Z,51.20
2022-11-15T09:10:44.064Z,49.47
2022-11-15T09:13:31.042Z,48.78
2022-11-15T09:16:19.626Z,49.28
2022-11-15T09:19:11.467Z,48.20
2022-11-15T09:21:58.985Z,47.25
2022-11-15T09:24:45.790Z,43.33
2022-11-15T09:27:33.056Z,42.42
2022-11-15T09:30:20.201Z,40.85
2022-11-15T09:33:12.821Z,41.20
2022-11-15T09:36:02.965Z,39.63
2022-11-15T09:38:49.675Z,39.60
2022-11-15T09:41:51.534Z,39.55
2022-11-15T09:45:01.691Z,36.13
2022-11-15T09:48:11.995Z,36.28
2022-11-15T09:51:00.729Z,38.17
2022-11-15T09:54:09.143Z,34.42
2022-11-15T09:56:24.292Z,32.20
2022-11-15T09:59:02.148Z,34.35
2022-11-15T10:01:42.683Z,30.73
2022-11-15T10:04:12.112Z,31.85
2022-11-15T10:06:50.319Z,30.85
2022-11-15T10:09:24.157Z,30.35
2022-11-15T10:11:52.470Z,30.30
2022-11-15T10:14:22.990Z,29.33
2022-11-15T10:17:24.572Z,29.75
2022-11-15T10:20:05.734Z,28.60
2022-11-15T10:22:40.856Z,29.83
2022-11-15T10:25:24.496Z,29.15
2022-11-15T10:27:58.944Z,28.50
2022-11-15T10:30:34.376Z,26.98
2022-11-15T10:33:14.121Z,30.33
2022-11-15T10:35:42.502Z,30.67
2022-11-15T10:38:13.554Z,27.50
2022-11-15T10:40:44.652Z,27.92
2022-11-15T10:43:18.858Z,26.77
2022-11-15T10:45:47.999Z,27.20
2022-11-15T10:48:25.103Z,27.92
2022-11-15T10:50:55.042Z,25.70
2022-11-15T10:53:29.736Z,28.23
2022-11-15T10:56:01.503Z,26.60
2022-11-15T10:58:36.235Z,25.05
2022-11-15T11:01:18.803Z,25.98
2022-11-15T11:03:59.216Z,25.75
2022-11-15T11:06:27.618Z,27.98
2022-11-15T11:08:59.142Z,26.92
2022-11-15T11:11:48.252Z,26.40
2022-11-15T11:14:23.366Z,26.30
2022-11-15T11:16:55.596Z,26.08
2022-11-15T11:19:59.960Z,24.77
2022-11-15T11:22:36.810Z,24.88
2022-11-15T11:25:21.353Z,25.30
2022-11-15T11:28:01.475Z,24.30
2022-11-15T11:30:41.099Z,26.45
2022-11-15T11:33:18.518Z,25.20
2022-11-15T11:35:56.633Z,24.92
2022-11-15T11:38:42.068Z,27.13
2022-11-15T11:41:22.076Z,25.77
2022-11-15T11:44:03.671Z,24.80
2022-11-15T11:46:48.100Z,25.45
2022-11-15T11:49:22.798Z,22.95
2022-11-15T11:51:57.111Z,22.95
2022-11-15T11:54:36.931Z,23.83
2022-11-15T11:57:13.067Z,23.58
2022-11-15T11:59:45.794Z,24.65
2022-11-15T12:02:22.289Z,23.95
2022-11-15T12:04:55.016Z,23.85
2022-11-15T12:07:27.323Z,23.48
2022-11-15T12:09:59.627Z,24.05
2022-11-15T12:12:36.335Z,24.63
2022-11-15T12:15:12.011Z,22.40
2022-11-15T12:17:43.413Z,23.65
2022-11-15T12:20:19.825Z,24.48
2022-11-15T12:22:53.873Z,23.85
2022-11-15T12:25:26.053Z,23.60
2022-11-15T12:27:59.283Z,22.73
2022-11-15T12:30:42.677Z,23.40
2022-11-15T12:33:36.523Z,23.98
2022-11-15T12:36:07.711Z,22.73
2022-11-15T12:38:59.073Z,32.97
2022-11-15T12:41:28.933Z,22.58
2022-11-15T12:44:00.089Z,23.67
2022-11-15T12:47:05.944Z,23.77
2022-11-15T12:49:48.228Z,44.85
2022-11-15T12:52:17.667Z,24.60
2022-11-15T12:55:25.777Z,26.20
2022-11-15T12:57:54.386Z,22.73
2022-11-15T13:00:48.773Z,23.90
2022-11-15T13:03:24.383Z,23.40
2022-11-15T13:06:02.492Z,22.85
2022-11-15T13:08:51.904Z,24.85
2022-11-15T13:11:52.221Z,25.70
2022-11-15T13:14:49.422Z,23.60
2022-11-15T13:17:35.597Z,22.60
2022-11-15T13:20:28.978Z,20.83
2022-11-15T13:23:04.693Z,21.52
2022-11-15T13:26:05.648Z,19.95
2022-11-15T13:28:37.904Z,20.85
2022-11-15T13:31:31.356Z,21.30
2022-11-15T13:34:13.659Z,19.73
2022-11-15T13:36:52.387Z,20.20
2022-11-15T13:39:29.728Z,21.05
2022-11-15T13:41:58.125Z,19.15
2022-11-15T13:44:28.561Z,20.50
2022-11-15T13:47:04.586Z,18.40
2022-11-15T13:49:35.454Z,18.65
2022-11-15T13:52:07.149Z,19.45
2022-11-15T13:54:38.912Z,18.30
2022-11-15T13:57:12.474Z,19.13
2022-11-15T13:59:49.172Z,26.13
2022-11-15T14:02:22.146Z,20.15
2022-11-15T14:07:22.871Z,23.05
2022-11-15T14:09:51.475Z,22.38
2022-11-15T14:12:32.726Z,20.88
2022-11-15T14:15:02.450Z,20.55
2022-11-15T14:17:45.654Z,20.42
2022-11-15T14:20:31.856Z,20.55
2022-11-15T14:23:01.909Z,21.42
2022-11-15T14:25:31.106Z,20.48
2022-11-15T14:28:14.316Z,21.08
2022-11-15T14:30:44.114Z,21.38
2022-11-15T14:33:29.317Z,21.65
2022-11-15T14:35:59.936Z,22.25
2022-11-15T14:38:29.440Z,21.25
2022-11-15T14:40:57.803Z,21.65
2022-11-15T14:43:26.249Z,22.55
2022-11-15T14:45:54.588Z,23.23
2022-11-15T14:48:25.586Z,21.08
2022-11-15T14:50:53.832Z,22.70
2022-11-15T14:53:23.517Z,24.33
2022-11-15T14:55:51.690Z,25.00
2022-11-15T14:58:19.942Z,25.73
2022-11-15T15:00:48.516Z,23.58
2022-11-15T15:03:16.755Z,25.45
2022-11-15T15:05:46.126Z,24.27
2022-11-15T15:08:14.574Z,24.73
2022-11-15T15:10:45.986Z,24.02
2022-11-15T15:13:19.308Z,24.23
2022-11-15T15:15:48.188Z,23.05
2022-11-15T15:18:16.466Z,24.15
2022-11-15T15:20:46.595Z,23.83
2022-11-15T15:23:19.619Z,26.60
2022-11-15T15:25:50.320Z,25.83
2022-11-15T15:28:18.722Z,25.55
2022-11-15T15:30:47.023Z,25.55
2022-11-15T15:33:15.212Z,28.90
2022-11-15T15:35:43.956Z,29.55
2022-11-15T15:38:16.430Z,27.65
2022-11-15T15:40:44.646Z,29.05
2022-11-15T15:43:14.204Z,28.70
2022-11-15T15:45:44.315Z,28.40
2022-11-15T15:48:14.493Z,27.08
2022-11-15T15:50:43.804Z,28.10
2022-11-15T15:53:13.359Z,27.23
2022-11-15T15:55:41.829Z,25.50
2022-11-15T15:58:10.447Z,30.88
2022-11-15T16:00:40.277Z,28.13
2022-11-15T16:03:08.449Z,27.20
2022-11-15T16:05:36.725Z,26.40
2022-11-15T16:08:05.199Z,26.13
2022-11-15T16:10:35.878Z,27.02
2022-11-15T16:13:04.957Z,26.35
2022-11-15T16:15:33.899Z,29.70
2022-11-15T16:18:04.206Z,28.25
2022-11-15T16:20:35.722Z,28.58
2022-11-15T16:23:08.948Z,29.00
2022-11-15T16:25:42.910Z,29.95
2022-11-15T16:28:20.896Z,35.00
2022-11-15T16:30:53.954Z,29.27
2022-11-15T16:33:28.636Z,44.95
2022-11-15T16:35:56.866Z,37.97
2022-11-15T16:38:24.976Z,35.92
2022-11-15T16:40:53.095Z,34.88
2022-11-15T16:43:21.338Z,37.28
2022-11-15T16:45:50.516Z,40.13
2022-11-15T16:48:25.184Z,38.63
2022-11-15T16:50:57.231Z,38.30
2022-11-15T16:53:25.632Z,38.50
2022-11-15T16:55:56.319Z,42.15
2022-11-15T16:58:25.025Z,44.55
2022-11-15T17:00:54.228Z,54.20
2022-11-15T17:03:22.935Z,45.88
2022-11-15T17:05:51.994Z,50.45
2022-11-15T17:08:22.555Z,49.80
2022-11-15T17:13:21.495Z,73.85
2022-11-15T17:15:52.256Z,65.63
2022-11-15T17:18:21.327Z,57.78
2022-11-15T17:20:49.517Z,63.03
2022-11-15T17:23:17.714Z,73.93
2022-11-15T17:25:47.284Z,62.13
2022-11-15T17:28:15.478Z,62.22
2022-11-15T17:30:44.297Z,69.53
2022-11-15T17:33:12.572Z,64.82
2022-11-15T17:35:40.734Z,64.10
2022-11-15T17:38:08.984Z,62.97
2022-11-15T17:40:37.372Z,62.42
2022-11-15T17:43:07.954Z,65.72
2022-11-15T17:45:37.586Z,65.97
2022-11-15T17:48:05.812Z,66.20
2022-11-15T17:50:36.276Z,66.60
2022-11-15T17:53:04.435Z,66.25
2022-11-15T17:55:34.104Z,67.70
2022-11-15T17:58:02.251Z,66.05
2022-11-15T18:00:31.959Z,70.05
2022-11-15T18:03:00.147Z,68.72
2022-11-15T18:05:28.316Z,73.22
2022-11-15T18:07:56.507Z,68.13
2022-11-15T18:10:24.607Z,74.88
2022-11-15T18:12:52.795Z,70.45
2022-11-15T18:15:21.503Z,68.47
2022-11-15T18:17:50.983Z,100.63
2022-11-15T18:20:19.444Z,71.45
2022-11-15T18:22:47.879Z,70.05
2022-11-15T18:25:16.272Z,89.78
2022-11-15T18:27:44.476Z,69.10
2022-11-15T18:30:13.546Z,65.07
2022-11-15T18:32:41.948Z,72.93
2022-11-15T18:35:11.593Z,76.10
2022-11-15T18:37:39.933Z,75.55
2022-11-15T18:40:09.737Z,74.25
2022-11-15T18:42:37.898Z,100.53
2022-11-15T18:45:06.712Z,73.63
2022-11-15T18:47:34.979Z,71.50
2022-11-15T18:50:05.742Z,69.40
2022-11-15T18:52:35.261Z,72.22
2022-11-15T18:55:03.479Z,72.57
2022-11-15T18:57:32.298Z,73.10
2022-11-15T19:00:00.424Z,81.32
2022-11-15T19:02:29.997Z,108.88
2022-11-15T19:04:58.197Z,71.68
2022-11-15T19:07:26.348Z,73.63
2022-11-15T19:09:56.210Z,75.95
2022-11-15T19:12:24.439Z,86.28
2022-11-15T19:14:52.602Z,71.88
2022-11-15T19:17:20.750Z,72.95
2022-11-15T19:19:48.918Z,76.35
2022-11-15T19:22:17.120Z,78.57
2022-11-15T19:24:45.227Z,73.65
2022-11-15T19:27:14.773Z,76.78
2022-11-15T19:29:42.954Z,77.80
2022-11-15T19:32:11.116Z,77.35
2022-11-15T19:34:41.844Z,80.18
2022-11-15T19:37:10.005Z,77.82
2022-11-15T19:39:41.256Z,77.53
2022-11-15T19:42:09.724Z,80.78
2022-11-15T19:44:39.455Z,78.65
2022-11-15T19:47:09.321Z,83.28
2022-11-15T19:49:37.563Z,78.82
2022-11-15T19:52:06.215Z,82.90
2022-11-15T19:54:36.832Z,84.80
2022-11-15T19:57:05.091Z,82.28
2022-11-15T19:59:33.198Z,82.88
2022-11-15T20:02:02.713Z,85.57
2022-11-15T20:04:30.927Z,83.13
2022-11-15T20:06:59.164Z,82.68
2022-11-15T20:09:27.414Z,88.07
2022-11-15T20:11:55.523Z,82.28
2022-11-15T20:14:24.143Z,80.43
2022-11-15T20:16:54.367Z,79.05
2022-11-15T20:19:24.613Z,80.13
2022-11-15T20:21:52.764Z,78.80
2022-11-15T20:24:20.961Z,78.57
2022-11-15T20:26:49.107Z,76.18
2022-11-15T20:29:17.281Z,75.68
2022-11-15T20:31:45.669Z,73.10
2022-11-15T20:34:16.448Z,72.10
2022-11-15T20:36:45.915Z,73.70
2022-11-15T20:39:14.040Z,71.32
2022-11-15T20:41:42.183Z,72.30
2022-11-15T20:44:10.285Z,70.95
2022-11-15T20:46:38.373Z,73.45
2022-11-15T20:49:07.086Z,72.80
2022-11-15T20:51:35.278Z,73.80
2022-11-15T20:54:05.086Z,72.13
2022-11-15T20:56:33.263Z,69.28
2022-11-15T20:59:01.432Z,71.28
2022-11-15T21:01:30.815Z,71.82
2022-11-15T21:03:59.558Z,69.03
2022-11-15T21:06:28.709Z,72.93
2022-11-15T21:09:15.068Z,67.95
2022-11-15T21:12:10.642Z,71.93
2022-11-15T21:14:38.799Z,70.07
2022-11-15T21:17:07.345Z,68.95
2022-11-15T21:19:37.094Z,70.68
2022-11-15T21:22:57.187Z,70.03
2022-11-15T21:25:26.358Z,71.18
2022-11-15T21:27:55.948Z,69.47
2022-11-15T21:30:26.975Z,69.32
2022-11-15T21:32:55.026Z,70.68
2022-11-15T21:35:23.897Z,71.68
2022-11-15T21:37:57.024Z,73.17
2022-11-15T21:40:25.847Z,71.97
2022-11-15T21:42:57.675Z,72.95
2022-11-15T21:45:25.829Z,71.70
2022-11-15T21:47:53.973Z,74.50
2022-11-15T21:50:22.081Z,71.25
2022-11-15T21:52:50.250Z,74.22
2022-11-15T21:55:18.392Z,76.45
2022-11-15T21:57:46.663Z,73.53
2022-11-15T22:00:35.531Z,76.93
2022-11-15T22:03:03.751Z,76.38
2022-11-15T22:05:31.889Z,78.13
2022-11-15T22:08:00.044Z,77.70
2022-11-15T22:10:28.158Z,75.20
2022-11-15T22:12:56.319Z,80.53
2022-11-15T22:15:27.933Z,77.25
2022-11-15T22:17:58.803Z,76.57
2022-11-15T22:20:44.176Z,75.93
2022-11-15T22:23:13.373Z,80.35
2022-11-15T22:25:44.801Z,78.20
2022-11-15T22:28:15.384Z,78.55
2022-11-15T22:30:47.582Z,80.03
2022-11-15T22:33:16.738Z,77.53
2022-11-15T22:35:46.615Z,79.93
2022-11-15T22:38:15.415Z,79.00
2022-11-15T22:40:44.667Z,81.60
2022-11-15T22:43:14.080Z,77.88
2022-11-15T22:45:53.387Z,80.45
2022-11-15T22:48:22.624Z,78.72
2022-11-15T22:50:51.388Z,78.85
2022-11-15T22:53:22.922Z,78.35
2022-11-15T22:55:52.565Z,82.20
2022-11-15T22:58:21.464Z,80.47
2022-11-15T23:00:52.598Z,78.72
2022-11-15T23:03:21.955Z,78.82
2022-11-15T23:05:50.768Z,81.68
2022-11-15T23:08:20.203Z,78.97
2022-11-15T23:11:08.269Z,80.88
2022-11-15T23:13:36.731Z,82.40
2022-11-15T23:16:25.561Z,81.50
2022-11-15T23:18:58.403Z,80.97
2022-11-15T23:21:45.608Z,82.03
2022-11-15T23:24:15.523Z,81.72
2022-11-15T23:26:44.689Z,80.43
2022-11-15T23:29:15.393Z,81.35
2022-11-15T23:32:03.273Z,82.43
2022-11-15T23:34:33.614Z,83.90
2022-11-15T23:37:01.971Z,85.80
2022-11-15T23:39:30.237Z,85.63
2022-11-15T23:41:58.684Z,83.15
2022-11-15T23:44:27.387Z,87.03
2022-11-15T23:46:57.296Z,82.80
2022-11-15T23:49:26.009Z,84.82
2022-11-15T23:51:54.451Z,83.95
2022-11-15T23:54:22.786Z,84.43
2022-11-15T23:56:51.195Z,83.68
2022-11-15T23:59:19.501Z,85.82
